sensor_id;sensor_type;location;lat;lon;timestamp;temperature;humidity
19646;DHT22;9971;52.446;13.452;2022-11-04T00:04:56;19.20;99.90
19646;DHT22;9971;52.446;13.452;2022-11-04T00:09:59;19.20;99.90
19646;DHT22;9971;52.446;13.452;2022-11-04T00:15:02;19.20;99.90
19646;DHT22;9971;52.446;13.452;2022-11-04T00:20:04;19.20;99.90
19646;DHT22;9971;52.446;13.452;2022-11-04T00:25:23;19.20;99.90
19646;DHT22;9971;52.446;13.452;2022-11-04T00:30:31;19.20;99.90
19646;DHT22;9971;52.446;13.452;2022-11-04T00:35:33;19.20;99.90
19646;DHT22;9971;52.446;13.452;2022-11-04T00:40:36;19.20;99.90
19646;DHT22;9971;52.446;13.452;2022-11-04T00:45:39;19.20;99.90
19646;DHT22;9971;52.446;13.452;2022-11-04T00:50:40;19.20;99.90
19646;DHT22;9971;52.446;13.452;2022-11-04T00:55:43;19.10;99.90
19646;DHT22;9971;52.446;13.452;2022-11-04T01:00:45;19.10;99.90
19646;DHT22;9971;52.446;13.452;2022-11-04T01:05:48;19.10;99.90
19646;DHT22;9971;52.446;13.452;2022-11-04T01:10:50;19.10;99.90
19646;DHT22;9971;52.446;13.452;2022-11-04T01:15:53;19.10;99.90
19646;DHT22;9971;52.446;13.452;2022-11-04T01:20:59;19.10;99.90
19646;DHT22;9971;52.446;13.452;2022-11-04T01:25:57;19.10;99.90
19646;DHT22;9971;52.446;13.452;2022-11-04T01:31:04;19.10;99.90
19646;DHT22;9971;52.446;13.452;2022-11-04T01:36:02;19.10;99.90
19646;DHT22;9971;52.446;13.452;2022-11-04T01:41:04;19.10;99.90
19646;DHT22;9971;52.446;13.452;2022-11-04T01:46:06;19.00;99.90
19646;DHT22;9971;52.446;13.452;2022-11-04T01:51:08;19.00;99.90
19646;DHT22;9971;52.446;13.452;2022-11-04T01:56:11;19.00;99.90
19646;DHT22;9971;52.446;13.452;2022-11-04T02:01:13;19.00;99.90
19646;DHT22;9971;52.446;13.452;2022-11-04T02:06:15;19.00;99.90
19646;DHT22;9971;52.446;13.452;2022-11-04T02:11:17;19.00;99.90
19646;DHT22;9971;52.446;13.452;2022-11-04T02:16:33;19.00;99.90
19646;DHT22;9971;52.446;13.452;2022-11-04T02:21:56;19.00;99.90
19646;DHT22;9971;52.446;13.452;2022-11-04T02:26:58;19.00;99.90
19646;DHT22;9971;52.446;13.452;2022-11-04T02:32:17;19.00;99.90
19646;DHT22;9971;52.446;13.452;2022-11-04T02:42:54;19.00;99.90
19646;DHT22;9971;52.446;13.452;2022-11-04T02:47:57;19.10;99.90
19646;DHT22;9971;52.446;13.452;2022-11-04T02:53:00;19.00;99.90
19646;DHT22;9971;52.446;13.452;2022-11-04T02:58:00;19.00;99.90
19646;DHT22;9971;52.446;13.452;2022-11-04T03:03:06;19.00;99.90
19646;DHT22;9971;52.446;13.452;2022-11-04T03:08:07;19.00;99.90
19646;DHT22;9971;52.446;13.452;2022-11-04T03:13:14;19.00;99.90
19646;DHT22;9971;52.446;13.452;2022-11-04T03:18:20;19.00;99.90
19646;DHT22;9971;52.446;13.452;2022-11-04T03:23:20;19.00;99.90
19646;DHT22;9971;52.446;13.452;2022-11-04T03:28:28;19.00;99.90
19646;DHT22;9971;52.446;13.452;2022-11-04T03:38:50;19.00;99.90
19646;DHT22;9971;52.446;13.452;2022-11-04T03:43:52;19.00;99.90
19646;DHT22;9971;52.446;13.452;2022-11-04T03:48:55;18.90;99.90
19646;DHT22;9971;52.446;13.452;2022-11-04T03:53:57;18.90;99.90
19646;DHT22;9971;52.446;13.452;2022-11-04T04:04:29;18.90;99.90
19646;DHT22;9971;52.446;13.452;2022-11-04T04:14:55;18.90;99.90
19646;DHT22;9971;52.446;13.452;2022-11-04T04:19:57;18.90;99.90
19646;DHT22;9971;52.446;13.452;2022-11-04T04:24:58;18.90;99.90
19646;DHT22;9971;52.446;13.452;2022-11-04T04:30:07;18.90;99.90
19646;DHT22;9971;52.446;13.452;2022-11-04T04:35:08;18.90;99.90
19646;DHT22;9971;52.446;13.452;2022-11-04T04:40:16;18.90;99.90
19646;DHT22;9971;52.446;13.452;2022-11-04T04:45:39;18.90;99.90
19646;DHT22;9971;52.446;13.452;2022-11-04T04:50:41;18.90;99.90
19646;DHT22;9971;52.446;13.452;2022-11-04T04:55:42;18.90;99.90
19646;DHT22;9971;52.446;13.452;2022-11-04T05:00:45;18.90;99.90
19646;DHT22;9971;52.446;13.452;2022-11-04T05:05:47;18.80;99.90
19646;DHT22;9971;52.446;13.452;2022-11-04T05:10:50;18.80;99.90
19646;DHT22;9971;52.446;13.452;2022-11-04T05:15:53;18.80;99.90
19646;DHT22;9971;52.446;13.452;2022-11-04T05:20:55;18.80;99.90
19646;DHT22;9971;52.446;13.452;2022-11-04T05:25:58;18.80;99.90
19646;DHT22;9971;52.446;13.452;2022-11-04T05:31:02;18.80;99.90
19646;DHT22;9971;52.446;13.452;2022-11-04T05:36:07;18.80;99.90
19646;DHT22;9971;52.446;13.452;2022-11-04T05:41:10;18.80;99.90
19646;DHT22;9971;52.446;13.452;2022-11-04T05:46:13;18.80;99.90
19646;DHT22;9971;52.446;13.452;2022-11-04T05:51:16;18.80;99.90
19646;DHT22;9971;52.446;13.452;2022-11-04T05:56:18;18.80;99.90
19646;DHT22;9971;52.446;13.452;2022-11-04T06:01:26;18.80;99.90
19646;DHT22;9971;52.446;13.452;2022-11-04T06:06:29;18.70;99.90
19646;DHT22;9971;52.446;13.452;2022-11-04T06:11:29;18.80;99.90
19646;DHT22;9971;52.446;13.452;2022-11-04T06:16:32;18.80;99.90
19646;DHT22;9971;52.446;13.452;2022-11-04T06:21:35;18.70;99.90
19646;DHT22;9971;52.446;13.452;2022-11-04T06:26:37;18.70;99.90
19646;DHT22;9971;52.446;13.452;2022-11-04T06:31:40;18.70;99.90
19646;DHT22;9971;52.446;13.452;2022-11-04T06:36:42;18.70;99.90
19646;DHT22;9971;52.446;13.452;2022-11-04T06:41:45;18.70;99.90
19646;DHT22;9971;52.446;13.452;2022-11-04T06:46:47;18.70;99.90
19646;DHT22;9971;52.446;13.452;2022-11-04T06:51:51;18.60;99.90
19646;DHT22;9971;52.446;13.452;2022-11-04T06:56:53;18.70;99.90
19646;DHT22;9971;52.446;13.452;2022-11-04T07:01:55;18.70;99.90
19646;DHT22;9971;52.446;13.452;2022-11-04T07:06:58;18.70;99.90
19646;DHT22;9971;52.446;13.452;2022-11-04T07:12:00;18.70;99.90
19646;DHT22;9971;52.446;13.452;2022-11-04T07:17:02;18.60;99.90
19646;DHT22;9971;52.446;13.452;2022-11-04T07:22:05;18.60;99.90
19646;DHT22;9971;52.446;13.452;2022-11-04T07:27:07;18.60;99.90
19646;DHT22;9971;52.446;13.452;2022-11-04T07:32:09;18.60;99.90
19646;DHT22;9971;52.446;13.452;2022-11-04T07:37:12;18.60;99.90
19646;DHT22;9971;52.446;13.452;2022-11-04T07:42:15;18.60;99.90
19646;DHT22;9971;52.446;13.452;2022-11-04T07:47:18;18.60;99.90
19646;DHT22;9971;52.446;13.452;2022-11-04T07:52:21;18.60;99.90
19646;DHT22;9971;52.446;13.452;2022-11-04T07:57:24;18.60;99.90
19646;DHT22;9971;52.446;13.452;2022-11-04T08:02:26;18.60;99.90
19646;DHT22;9971;52.446;13.452;2022-11-04T08:07:29;18.60;99.90
19646;DHT22;9971;52.446;13.452;2022-11-04T08:12:31;18.60;99.90
19646;DHT22;9971;52.446;13.452;2022-11-04T08:17:33;18.60;99.90
19646;DHT22;9971;52.446;13.452;2022-11-04T08:22:35;18.60;99.90
19646;DHT22;9971;52.446;13.452;2022-11-04T08:27:38;18.60;99.90
19646;DHT22;9971;52.446;13.452;2022-11-04T08:32:40;18.50;99.90
19646;DHT22;9971;52.446;13.452;2022-11-04T08:37:43;18.60;99.90
19646;DHT22;9971;52.446;13.452;2022-11-04T08:42:46;18.60;99.90
19646;DHT22;9971;52.446;13.452;2022-11-04T08:47:49;18.50;99.90
19646;DHT22;9971;52.446;13.452;2022-11-04T08:52:51;18.50;99.90
19646;DHT22;9971;52.446;13.452;2022-11-04T08:57:53;18.60;99.90
19646;DHT22;9971;52.446;13.452;2022-11-04T09:02:56;18.60;99.90
19646;DHT22;9971;52.446;13.452;2022-11-04T09:07:58;18.50;99.90
19646;DHT22;9971;52.446;13.452;2022-11-04T09:13:00;18.50;99.90
19646;DHT22;9971;52.446;13.452;2022-11-04T09:18:03;18.40;99.90
19646;DHT22;9971;52.446;13.452;2022-11-04T09:23:05;18.40;99.90
19646;DHT22;9971;52.446;13.452;2022-11-04T09:28:08;18.40;99.90
19646;DHT22;9971;52.446;13.452;2022-11-04T09:33:10;18.40;99.90
19646;DHT22;9971;52.446;13.452;2022-11-04T09:38:13;18.40;99.90
19646;DHT22;9971;52.446;13.452;2022-11-04T09:48:32;18.40;99.90
19646;DHT22;9971;52.446;13.452;2022-11-04T09:53:39;18.40;99.90
19646;DHT22;9971;52.446;13.452;2022-11-04T09:58:39;18.30;99.90
19646;DHT22;9971;52.446;13.452;2022-11-04T10:04:22;18.30;99.90
19646;DHT22;9971;52.446;13.452;2022-11-04T10:09:13;18.30;99.90
19646;DHT22;9971;52.446;13.452;2022-11-04T10:14:24;18.30;99.90
19646;DHT22;9971;52.446;13.452;2022-11-04T10:19:32;18.20;99.90
19646;DHT22;9971;52.446;13.452;2022-11-04T10:25:07;18.30;99.90
19646;DHT22;9971;52.446;13.452;2022-11-04T10:30:17;18.30;99.90
19646;DHT22;9971;52.446;13.452;2022-11-04T10:35:27;18.30;99.90
19646;DHT22;9971;52.446;13.452;2022-11-04T10:40:28;18.20;99.90
19646;DHT22;9971;52.446;13.452;2022-11-04T10:45:30;18.20;99.90
19646;DHT22;9971;52.446;13.452;2022-11-04T10:50:50;18.20;99.90
19646;DHT22;9971;52.446;13.452;2022-11-04T10:55:56;18.10;99.90
19646;DHT22;9971;52.446;13.452;2022-11-04T11:00:57;18.20;99.90
19646;DHT22;9971;52.446;13.452;2022-11-04T11:06:29;18.20;99.90
19646;DHT22;9971;52.446;13.452;2022-11-04T11:11:37;18.20;99.90
19646;DHT22;9971;52.446;13.452;2022-11-04T11:16:38;18.30;99.90
19646;DHT22;9971;52.446;13.452;2022-11-04T11:21:45;18.30;99.90
19646;DHT22;9971;52.446;13.452;2022-11-04T11:26:47;18.30;99.90
19646;DHT22;9971;52.446;13.452;2022-11-04T11:31:49;18.30;99.90
19646;DHT22;9971;52.446;13.452;2022-11-04T11:36:51;18.30;99.90
19646;DHT22;9971;52.446;13.452;2022-11-04T11:42:12;18.30;99.90
19646;DHT22;9971;52.446;13.452;2022-11-04T11:52:42;18.30;99.90
19646;DHT22;9971;52.446;13.452;2022-11-04T11:58:00;18.30;99.90
19646;DHT22;9971;52.446;13.452;2022-11-04T12:09:28;18.30;99.90
19646;DHT22;9971;52.446;13.452;2022-11-04T12:13:45;18.30;99.90
19646;DHT22;9971;52.446;13.452;2022-11-04T12:18:58;18.30;99.90
19646;DHT22;9971;52.446;13.452;2022-11-04T12:24:00;18.30;99.90
19646;DHT22;9971;52.446;13.452;2022-11-04T12:29:22;18.40;99.90
19646;DHT22;9971;52.446;13.452;2022-11-04T12:40:18;18.40;99.90
19646;DHT22;9971;52.446;13.452;2022-11-04T12:45:24;18.40;99.90
19646;DHT22;9971;52.446;13.452;2022-11-04T12:50:47;18.40;99.90
19646;DHT22;9971;52.446;13.452;2022-11-04T12:56:01;18.40;99.90
19646;DHT22;9971;52.446;13.452;2022-11-04T13:01:06;18.40;99.90
19646;DHT22;9971;52.446;13.452;2022-11-04T13:06:12;18.40;99.90
19646;DHT22;9971;52.446;13.452;2022-11-04T13:11:19;18.40;99.90
19646;DHT22;9971;52.446;13.452;2022-11-04T13:16:23;18.40;99.90
19646;DHT22;9971;52.446;13.452;2022-11-04T13:21:26;18.40;99.90
19646;DHT22;9971;52.446;13.452;2022-11-04T13:32:01;18.40;99.90
19646;DHT22;9971;52.446;13.452;2022-11-04T13:37:25;18.50;99.90
19646;DHT22;9971;52.446;13.452;2022-11-04T13:42:30;18.50;99.90
19646;DHT22;9971;52.446;13.452;2022-11-04T13:47:36;18.50;99.90
19646;DHT22;9971;52.446;13.452;2022-11-04T13:52:46;18.40;99.90
19646;DHT22;9971;52.446;13.452;2022-11-04T13:57:50;18.40;99.90
19646;DHT22;9971;52.446;13.452;2022-11-04T14:03:37;18.40;99.90
19646;DHT22;9971;52.446;13.452;2022-11-04T14:08:16;18.40;99.90
19646;DHT22;9971;52.446;13.452;2022-11-04T14:18:44;18.40;99.90
19646;DHT22;9971;52.446;13.452;2022-11-04T14:23:48;18.50;99.90
19646;DHT22;9971;52.446;13.452;2022-11-04T14:28:59;18.50;99.90
19646;DHT22;9971;52.446;13.452;2022-11-04T14:33:53;18.40;99.90
19646;DHT22;9971;52.446;13.452;2022-11-04T14:44:31;18.40;99.90
19646;DHT22;9971;52.446;13.452;2022-11-04T14:49:39;18.40;99.90
19646;DHT22;9971;52.446;13.452;2022-11-04T14:54:40;18.40;99.90
19646;DHT22;9971;52.446;13.452;2022-11-04T14:59:42;18.40;99.90
19646;DHT22;9971;52.446;13.452;2022-11-04T15:04:46;18.40;99.90
19646;DHT22;9971;52.446;13.452;2022-11-04T15:09:47;18.40;99.90
19646;DHT22;9971;52.446;13.452;2022-11-04T15:14:49;18.40;99.90
19646;DHT22;9971;52.446;13.452;2022-11-04T15:19:52;18.40;99.90
19646;DHT22;9971;52.446;13.452;2022-11-04T15:24:53;18.40;99.90
19646;DHT22;9971;52.446;13.452;2022-11-04T15:29:57;18.40;99.90
19646;DHT22;9971;52.446;13.452;2022-11-04T15:34:58;18.40;99.90
19646;DHT22;9971;52.446;13.452;2022-11-04T15:40:00;18.40;99.90
19646;DHT22;9971;52.446;13.452;2022-11-04T15:45:19;18.40;99.90
19646;DHT22;9971;52.446;13.452;2022-11-04T15:50:22;18.30;99.90
19646;DHT22;9971;52.446;13.452;2022-11-04T15:55:24;18.40;99.90
19646;DHT22;9971;52.446;13.452;2022-11-04T16:00:26;18.40;99.90
19646;DHT22;9971;52.446;13.452;2022-11-04T16:05:31;18.40;99.90
19646;DHT22;9971;52.446;13.452;2022-11-04T16:10:34;18.30;99.90
19646;DHT22;9971;52.446;13.452;2022-11-04T16:15:39;18.30;99.90
19646;DHT22;9971;52.446;13.452;2022-11-04T16:20:43;18.30;99.90
19646;DHT22;9971;52.446;13.452;2022-11-04T16:25:43;18.30;99.90
19646;DHT22;9971;52.446;13.452;2022-11-04T16:30:57;18.30;99.90
19646;DHT22;9971;52.446;13.452;2022-11-04T16:35:59;18.30;99.90
19646;DHT22;9971;52.446;13.452;2022-11-04T16:41:01;18.30;99.90
19646;DHT22;9971;52.446;13.452;2022-11-04T16:46:03;18.30;99.90
19646;DHT22;9971;52.446;13.452;2022-11-04T16:51:05;18.30;99.90
19646;DHT22;9971;52.446;13.452;2022-11-04T16:56:08;18.20;99.90
19646;DHT22;9971;52.446;13.452;2022-11-04T17:01:10;18.20;99.90
19646;DHT22;9971;52.446;13.452;2022-11-04T17:06:13;18.20;99.90
19646;DHT22;9971;52.446;13.452;2022-11-04T17:11:17;18.20;99.90
19646;DHT22;9971;52.446;13.452;2022-11-04T17:16:20;18.20;99.90
19646;DHT22;9971;52.446;13.452;2022-11-04T17:21:22;18.10;99.90
19646;DHT22;9971;52.446;13.452;2022-11-04T17:26:24;18.20;99.90
19646;DHT22;9971;52.446;13.452;2022-11-04T17:31:27;18.10;99.90
19646;DHT22;9971;52.446;13.452;2022-11-04T17:36:30;18.10;99.90
19646;DHT22;9971;52.446;13.452;2022-11-04T17:41:32;18.10;99.90
19646;DHT22;9971;52.446;13.452;2022-11-04T17:46:40;18.20;99.90
19646;DHT22;9971;52.446;13.452;2022-11-04T17:51:44;18.20;99.90
19646;DHT22;9971;52.446;13.452;2022-11-04T17:56:45;18.20;99.90
19646;DHT22;9971;52.446;13.452;2022-11-04T18:01:47;18.10;99.90
19646;DHT22;9971;52.446;13.452;2022-11-04T18:06:49;18.10;99.90
19646;DHT22;9971;52.446;13.452;2022-11-04T18:11:51;18.10;99.90
19646;DHT22;9971;52.446;13.452;2022-11-04T18:16:59;18.10;99.90
19646;DHT22;9971;52.446;13.452;2022-11-04T18:22:02;18.20;99.90
19646;DHT22;9971;52.446;13.452;2022-11-04T18:27:04;18.20;99.90
19646;DHT22;9971;52.446;13.452;2022-11-04T18:32:06;18.20;99.90
19646;DHT22;9971;52.446;13.452;2022-11-04T18:37:08;18.20;99.90
19646;DHT22;9971;52.446;13.452;2022-11-04T18:42:10;18.10;99.90
19646;DHT22;9971;52.446;13.452;2022-11-04T18:47:12;18.20;99.90
19646;DHT22;9971;52.446;13.452;2022-11-04T18:52:15;18.20;99.90
19646;DHT22;9971;52.446;13.452;2022-11-04T18:57:17;18.20;99.90
19646;DHT22;9971;52.446;13.452;2022-11-04T19:02:21;18.20;99.90
19646;DHT22;9971;52.446;13.452;2022-11-04T19:07:22;18.20;99.90
19646;DHT22;9971;52.446;13.452;2022-11-04T19:12:24;18.10;99.90
19646;DHT22;9971;52.446;13.452;2022-11-04T19:17:31;18.20;99.90
19646;DHT22;9971;52.446;13.452;2022-11-04T19:22:34;18.20;99.90
19646;DHT22;9971;52.446;13.452;2022-11-04T19:27:36;18.20;99.90
19646;DHT22;9971;52.446;13.452;2022-11-04T19:32:39;18.10;99.90
19646;DHT22;9971;52.446;13.452;2022-11-04T19:37:41;18.20;99.90
19646;DHT22;9971;52.446;13.452;2022-11-04T19:42:44;18.20;99.90
19646;DHT22;9971;52.446;13.452;2022-11-04T19:47:51;18.20;99.90
19646;DHT22;9971;52.446;13.452;2022-11-04T19:52:54;18.10;99.90
19646;DHT22;9971;52.446;13.452;2022-11-04T19:57:57;18.20;99.90
19646;DHT22;9971;52.446;13.452;2022-11-04T20:02:58;18.10;99.90
19646;DHT22;9971;52.446;13.452;2022-11-04T20:08:01;18.20;99.90
19646;DHT22;9971;52.446;13.452;2022-11-04T20:13:03;18.10;99.90
19646;DHT22;9971;52.446;13.452;2022-11-04T20:18:11;18.10;99.90
19646;DHT22;9971;52.446;13.452;2022-11-04T20:23:13;18.10;99.90
19646;DHT22;9971;52.446;13.452;2022-11-04T20:28:16;18.10;99.90
19646;DHT22;9971;52.446;13.452;2022-11-04T20:33:18;18.10;99.90
19646;DHT22;9971;52.446;13.452;2022-11-04T20:38:21;18.10;99.90
19646;DHT22;9971;52.446;13.452;2022-11-04T20:43:23;18.10;99.90
19646;DHT22;9971;52.446;13.452;2022-11-04T20:48:25;18.10;99.90
19646;DHT22;9971;52.446;13.452;2022-11-04T20:53:28;18.10;99.90
19646;DHT22;9971;52.446;13.452;2022-11-04T20:58:30;18.10;99.90
19646;DHT22;9971;52.446;13.452;2022-11-04T21:03:32;18.10;99.90
19646;DHT22;9971;52.446;13.452;2022-11-04T21:08:34;18.10;99.90
19646;DHT22;9971;52.446;13.452;2022-11-04T21:13:36;18.00;99.90
19646;DHT22;9971;52.446;13.452;2022-11-04T21:18:39;18.10;99.90
19646;DHT22;9971;52.446;13.452;2022-11-04T21:23:41;18.00;99.90
19646;DHT22;9971;52.446;13.452;2022-11-04T21:28:43;18.00;99.90
19646;DHT22;9971;52.446;13.452;2022-11-04T21:33:46;18.00;99.90
19646;DHT22;9971;52.446;13.452;2022-11-04T21:38:48;18.00;99.90
19646;DHT22;9971;52.446;13.452;2022-11-04T21:43:54;18.00;99.90
19646;DHT22;9971;52.446;13.452;2022-11-04T21:48:56;18.00;99.90
19646;DHT22;9971;52.446;13.452;2022-11-04T21:53:58;18.00;99.90
19646;DHT22;9971;52.446;13.452;2022-11-04T21:58:59;17.90;99.90
19646;DHT22;9971;52.446;13.452;2022-11-04T22:04:01;17.90;99.90
19646;DHT22;9971;52.446;13.452;2022-11-04T22:09:04;17.90;99.90
19646;DHT22;9971;52.446;13.452;2022-11-04T22:14:05;17.90;99.90
19646;DHT22;9971;52.446;13.452;2022-11-04T22:19:08;18.00;99.90
19646;DHT22;9971;52.446;13.452;2022-11-04T22:24:10;17.90;99.90
19646;DHT22;9971;52.446;13.452;2022-11-04T22:29:11;18.00;99.90
19646;DHT22;9971;52.446;13.452;2022-11-04T22:34:14;18.00;99.90
19646;DHT22;9971;52.446;13.452;2022-11-04T22:39:16;18.00;99.90
19646;DHT22;9971;52.446;13.452;2022-11-04T22:44:18;18.00;99.90
19646;DHT22;9971;52.446;13.452;2022-11-04T22:49:21;18.00;99.90
19646;DHT22;9971;52.446;13.452;2022-11-04T22:54:23;18.00;99.90
19646;DHT22;9971;52.446;13.452;2022-11-04T22:59:26;18.00;99.90
19646;DHT22;9971;52.446;13.452;2022-11-04T23:04:28;18.00;99.90
19646;DHT22;9971;52.446;13.452;2022-11-04T23:09:30;18.00;99.90
19646;DHT22;9971;52.446;13.452;2022-11-04T23:14:33;17.90;99.90
19646;DHT22;9971;52.446;13.452;2022-11-04T23:19:41;18.00;99.90
19646;DHT22;9971;52.446;13.452;2022-11-04T23:24:43;18.00;99.90
19646;DHT22;9971;52.446;13.452;2022-11-04T23:29:51;18.00;99.90
19646;DHT22;9971;52.446;13.452;2022-11-04T23:34:59;18.00;99.90
19646;DHT22;9971;52.446;13.452;2022-11-04T23:40:08;18.00;99.90
19646;DHT22;9971;52.446;13.452;2022-11-04T23:45:10;18.00;99.90
19646;DHT22;9971;52.446;13.452;2022-11-04T23:50:18;18.00;99.90
19646;DHT22;9971;52.446;13.452;2022-11-04T23:55:26;18.00;99.90
